sensor_id;sensor_type;location;lat;lon;timestamp;temperature;humidity
17154;DHT22;8692;52.164;7.558;2022-11-28T00:01:45;6.50;99.90
17154;DHT22;8692;52.164;7.558;2022-11-28T00:04:14;6.50;99.90
17154;DHT22;8692;52.164;7.558;2022-11-28T00:06:47;6.50;99.90
17154;DHT22;8692;52.164;7.558;2022-11-28T00:09:17;6.50;99.90
17154;DHT22;8692;52.164;7.558;2022-11-28T00:11:48;6.50;99.90
17154;DHT22;8692;52.164;7.558;2022-11-28T00:14:17;6.50;99.90
17154;DHT22;8692;52.164;7.558;2022-11-28T00:16:45;6.50;99.90
17154;DHT22;8692;52.164;7.558;2022-11-28T00:19:14;6.50;99.90
17154;DHT22;8692;52.164;7.558;2022-11-28T00:21:42;6.50;99.90
17154;DHT22;8692;52.164;7.558;2022-11-28T00:24:15;6.50;99.90
17154;DHT22;8692;52.164;7.558;2022-11-28T00:26:44;6.50;99.90
17154;DHT22;8692;52.164;7.558;2022-11-28T00:29:12;6.50;99.90
17154;DHT22;8692;52.164;7.558;2022-11-28T00:31:43;6.50;99.90
17154;DHT22;8692;52.164;7.558;2022-11-28T00:34:12;6.50;99.90
17154;DHT22;8692;52.164;7.558;2022-11-28T00:36:42;6.50;99.90
17154;DHT22;8692;52.164;7.558;2022-11-28T00:39:10;6.50;99.90
17154;DHT22;8692;52.164;7.558;2022-11-28T00:41:40;6.50;99.90
17154;DHT22;8692;52.164;7.558;2022-11-28T00:44:11;6.50;99.90
17154;DHT22;8692;52.164;7.558;2022-11-28T00:46:41;6.50;99.90
17154;DHT22;8692;52.164;7.558;2022-11-28T00:49:12;6.50;99.90
17154;DHT22;8692;52.164;7.558;2022-11-28T00:51:40;6.50;99.90
17154;DHT22;8692;52.164;7.558;2022-11-28T00:54:09;6.50;99.90
17154;DHT22;8692;52.164;7.558;2022-11-28T00:56:39;6.50;99.90
17154;DHT22;8692;52.164;7.558;2022-11-28T00:59:10;6.50;99.90
17154;DHT22;8692;52.164;7.558;2022-11-28T01:01:40;6.60;99.90
17154;DHT22;8692;52.164;7.558;2022-11-28T01:04:12;6.50;99.90
17154;DHT22;8692;52.164;7.558;2022-11-28T01:06:41;6.60;99.90
17154;DHT22;8692;52.164;7.558;2022-11-28T01:09:12;6.60;99.90
17154;DHT22;8692;52.164;7.558;2022-11-28T01:11:46;6.60;99.90
17154;DHT22;8692;52.164;7.558;2022-11-28T01:14:16;6.60;99.90
17154;DHT22;8692;52.164;7.558;2022-11-28T01:16:45;6.60;99.90
17154;DHT22;8692;52.164;7.558;2022-11-28T01:19:13;6.60;99.90
17154;DHT22;8692;52.164;7.558;2022-11-28T01:21:43;6.60;99.90
17154;DHT22;8692;52.164;7.558;2022-11-28T01:24:12;6.60;99.90
17154;DHT22;8692;52.164;7.558;2022-11-28T01:26:43;6.60;99.90
17154;DHT22;8692;52.164;7.558;2022-11-28T01:29:12;6.60;99.90
17154;DHT22;8692;52.164;7.558;2022-11-28T01:31:42;6.60;99.90
17154;DHT22;8692;52.164;7.558;2022-11-28T01:34:12;6.60;99.90
17154;DHT22;8692;52.164;7.558;2022-11-28T01:36:41;6.60;99.90
17154;DHT22;8692;52.164;7.558;2022-11-28T01:39:09;6.60;99.90
17154;DHT22;8692;52.164;7.558;2022-11-28T01:41:40;6.70;99.90
17154;DHT22;8692;52.164;7.558;2022-11-28T01:47:14;6.70;99.90
17154;DHT22;8692;52.164;7.558;2022-11-28T01:49:45;6.70;99.90
17154;DHT22;8692;52.164;7.558;2022-11-28T01:52:16;6.70;99.90
17154;DHT22;8692;52.164;7.558;2022-11-28T01:54:49;6.70;99.90
17154;DHT22;8692;52.164;7.558;2022-11-28T01:57:23;6.70;99.90
17154;DHT22;8692;52.164;7.558;2022-11-28T01:59:55;6.80;99.90
17154;DHT22;8692;52.164;7.558;2022-11-28T02:02:31;6.70;99.90
17154;DHT22;8692;52.164;7.558;2022-11-28T02:05:03;6.80;99.90
17154;DHT22;8692;52.164;7.558;2022-11-28T02:07:31;6.80;99.90
17154;DHT22;8692;52.164;7.558;2022-11-28T02:10:01;6.80;99.90
17154;DHT22;8692;52.164;7.558;2022-11-28T02:12:43;6.80;99.90
17154;DHT22;8692;52.164;7.558;2022-11-28T02:15:24;6.80;99.90
17154;DHT22;8692;52.164;7.558;2022-11-28T02:18:10;6.80;99.90
17154;DHT22;8692;52.164;7.558;2022-11-28T02:21:02;6.80;99.90
17154;DHT22;8692;52.164;7.558;2022-11-28T02:23:58;6.80;99.90
17154;DHT22;8692;52.164;7.558;2022-11-28T02:26:47;6.80;99.90
17154;DHT22;8692;52.164;7.558;2022-11-28T02:29:54;6.80;99.90
17154;DHT22;8692;52.164;7.558;2022-11-28T02:32:41;6.80;99.90
17154;DHT22;8692;52.164;7.558;2022-11-28T02:35:16;6.80;99.90
17154;DHT22;8692;52.164;7.558;2022-11-28T02:37:52;6.80;99.90
17154;DHT22;8692;52.164;7.558;2022-11-28T02:40:34;6.80;99.90
17154;DHT22;8692;52.164;7.558;2022-11-28T02:43:08;6.80;99.90
17154;DHT22;8692;52.164;7.558;2022-11-28T02:45:43;6.80;99.90
17154;DHT22;8692;52.164;7.558;2022-11-28T02:48:21;6.80;99.90
17154;DHT22;8692;52.164;7.558;2022-11-28T02:50:57;6.80;99.90
17154;DHT22;8692;52.164;7.558;2022-11-28T02:53:31;6.80;99.90
17154;DHT22;8692;52.164;7.558;2022-11-28T02:56:00;6.80;99.90
17154;DHT22;8692;52.164;7.558;2022-11-28T02:58:29;6.80;99.90
17154;DHT22;8692;52.164;7.558;2022-11-28T03:00:57;6.80;99.90
17154;DHT22;8692;52.164;7.558;2022-11-28T03:03:48;6.80;99.90
17154;DHT22;8692;52.164;7.558;2022-11-28T03:06:29;6.80;99.90
17154;DHT22;8692;52.164;7.558;2022-11-28T03:09:15;6.80;99.90
17154;DHT22;8692;52.164;7.558;2022-11-28T03:11:57;6.80;99.90
17154;DHT22;8692;52.164;7.558;2022-11-28T03:14:40;6.80;99.90
17154;DHT22;8692;52.164;7.558;2022-11-28T03:17:17;6.80;99.90
17154;DHT22;8692;52.164;7.558;2022-11-28T03:19:55;6.80;99.90
17154;DHT22;8692;52.164;7.558;2022-11-28T03:22:29;6.80;99.90
17154;DHT22;8692;52.164;7.558;2022-11-28T03:25:04;6.80;99.90
17154;DHT22;8692;52.164;7.558;2022-11-28T03:27:38;6.80;99.90
17154;DHT22;8692;52.164;7.558;2022-11-28T03:30:16;6.80;99.90
17154;DHT22;8692;52.164;7.558;2022-11-28T03:32:49;6.80;99.90
17154;DHT22;8692;52.164;7.558;2022-11-28T03:35:25;6.80;99.90
17154;DHT22;8692;52.164;7.558;2022-11-28T03:37:58;6.80;99.90
17154;DHT22;8692;52.164;7.558;2022-11-28T03:40:31;6.80;99.90
17154;DHT22;8692;52.164;7.558;2022-11-28T03:43:03;6.80;99.90
17154;DHT22;8692;52.164;7.558;2022-11-28T03:45:36;6.80;99.90
17154;DHT22;8692;52.164;7.558;2022-11-28T03:48:09;6.80;99.90
17154;DHT22;8692;52.164;7.558;2022-11-28T03:50:42;6.80;99.90
17154;DHT22;8692;52.164;7.558;2022-11-28T03:53:16;6.80;99.90
17154;DHT22;8692;52.164;7.558;2022-11-28T03:55:48;6.80;99.90
17154;DHT22;8692;52.164;7.558;2022-11-28T03:58:23;6.80;99.90
17154;DHT22;8692;52.164;7.558;2022-11-28T04:00:58;6.80;99.90
17154;DHT22;8692;52.164;7.558;2022-11-28T04:03:38;6.80;99.90
17154;DHT22;8692;52.164;7.558;2022-11-28T04:06:14;6.80;99.90
17154;DHT22;8692;52.164;7.558;2022-11-28T04:08:48;6.80;99.90
17154;DHT22;8692;52.164;7.558;2022-11-28T04:11:24;6.80;99.90
17154;DHT22;8692;52.164;7.558;2022-11-28T04:13:58;6.80;99.90
17154;DHT22;8692;52.164;7.558;2022-11-28T04:16:30;6.80;99.90
17154;DHT22;8692;52.164;7.558;2022-11-28T04:19:05;6.80;99.90
17154;DHT22;8692;52.164;7.558;2022-11-28T04:21:39;6.80;99.90
17154;DHT22;8692;52.164;7.558;2022-11-28T04:24:12;6.80;99.90
17154;DHT22;8692;52.164;7.558;2022-11-28T04:26:46;6.80;99.90
17154;DHT22;8692;52.164;7.558;2022-11-28T04:29:19;6.80;99.90
17154;DHT22;8692;52.164;7.558;2022-11-28T04:31:50;6.80;99.90
17154;DHT22;8692;52.164;7.558;2022-11-28T04:34:20;6.80;99.90
17154;DHT22;8692;52.164;7.558;2022-11-28T04:36:52;6.80;99.90
17154;DHT22;8692;52.164;7.558;2022-11-28T04:39:24;6.80;99.90
17154;DHT22;8692;52.164;7.558;2022-11-28T04:41:55;6.80;99.90
17154;DHT22;8692;52.164;7.558;2022-11-28T04:44:28;6.80;99.90
17154;DHT22;8692;52.164;7.558;2022-11-28T04:46:58;6.80;99.90
17154;DHT22;8692;52.164;7.558;2022-11-28T04:49:28;6.70;99.90
17154;DHT22;8692;52.164;7.558;2022-11-28T04:52:03;6.70;99.90
17154;DHT22;8692;52.164;7.558;2022-11-28T04:54:39;6.80;99.90
17154;DHT22;8692;52.164;7.558;2022-11-28T04:57:13;6.80;99.90
17154;DHT22;8692;52.164;7.558;2022-11-28T04:59:43;6.80;99.90
17154;DHT22;8692;52.164;7.558;2022-11-28T05:02:12;6.80;99.90
17154;DHT22;8692;52.164;7.558;2022-11-28T05:04:42;6.80;99.90
17154;DHT22;8692;52.164;7.558;2022-11-28T05:07:12;6.70;99.90
17154;DHT22;8692;52.164;7.558;2022-11-28T05:09:40;6.70;99.90
17154;DHT22;8692;52.164;7.558;2022-11-28T05:12:11;6.70;99.90
17154;DHT22;8692;52.164;7.558;2022-11-28T05:14:41;6.70;99.90
17154;DHT22;8692;52.164;7.558;2022-11-28T05:17:12;6.70;99.90
17154;DHT22;8692;52.164;7.558;2022-11-28T05:19:40;6.70;99.90
17154;DHT22;8692;52.164;7.558;2022-11-28T05:22:09;6.70;99.90
17154;DHT22;8692;52.164;7.558;2022-11-28T05:24:38;6.70;99.90
17154;DHT22;8692;52.164;7.558;2022-11-28T05:27:06;6.70;99.90
17154;DHT22;8692;52.164;7.558;2022-11-28T05:29:35;6.70;99.90
17154;DHT22;8692;52.164;7.558;2022-11-28T05:32:03;6.70;99.90
17154;DHT22;8692;52.164;7.558;2022-11-28T05:34:31;6.70;99.90
17154;DHT22;8692;52.164;7.558;2022-11-28T05:37:01;6.70;99.90
17154;DHT22;8692;52.164;7.558;2022-11-28T05:39:30;6.70;99.90
17154;DHT22;8692;52.164;7.558;2022-11-28T05:42:00;6.70;99.90
17154;DHT22;8692;52.164;7.558;2022-11-28T05:44:30;6.70;99.90
17154;DHT22;8692;52.164;7.558;2022-11-28T05:47:01;6.70;99.90
17154;DHT22;8692;52.164;7.558;2022-11-28T05:49:31;6.70;99.90
17154;DHT22;8692;52.164;7.558;2022-11-28T05:51:59;6.70;99.90
17154;DHT22;8692;52.164;7.558;2022-11-28T05:54:27;6.70;99.90
17154;DHT22;8692;52.164;7.558;2022-11-28T05:57:00;6.70;99.90
17154;DHT22;8692;52.164;7.558;2022-11-28T05:59:28;6.70;99.90
17154;DHT22;8692;52.164;7.558;2022-11-28T06:01:56;6.70;99.90
17154;DHT22;8692;52.164;7.558;2022-11-28T06:04:25;6.70;99.90
17154;DHT22;8692;52.164;7.558;2022-11-28T06:06:53;6.70;99.90
17154;DHT22;8692;52.164;7.558;2022-11-28T06:09:21;6.70;99.90
17154;DHT22;8692;52.164;7.558;2022-11-28T06:11:52;6.70;99.90
17154;DHT22;8692;52.164;7.558;2022-11-28T06:14:21;6.70;99.90
17154;DHT22;8692;52.164;7.558;2022-11-28T06:16:52;6.70;99.90
17154;DHT22;8692;52.164;7.558;2022-11-28T06:19:20;6.70;99.90
17154;DHT22;8692;52.164;7.558;2022-11-28T06:21:51;6.70;99.90
17154;DHT22;8692;52.164;7.558;2022-11-28T06:24:19;6.70;99.90
17154;DHT22;8692;52.164;7.558;2022-11-28T06:26:49;6.70;99.90
17154;DHT22;8692;52.164;7.558;2022-11-28T06:29:21;6.70;99.90
17154;DHT22;8692;52.164;7.558;2022-11-28T06:31:49;6.70;99.90
17154;DHT22;8692;52.164;7.558;2022-11-28T06:34:17;6.70;99.90
17154;DHT22;8692;52.164;7.558;2022-11-28T06:36:45;6.70;99.90
17154;DHT22;8692;52.164;7.558;2022-11-28T06:39:16;6.70;99.90
17154;DHT22;8692;52.164;7.558;2022-11-28T06:41:44;6.70;99.90
17154;DHT22;8692;52.164;7.558;2022-11-28T06:44:13;6.70;99.90
17154;DHT22;8692;52.164;7.558;2022-11-28T06:46:43;6.70;99.90
17154;DHT22;8692;52.164;7.558;2022-11-28T06:49:11;6.70;99.90
17154;DHT22;8692;52.164;7.558;2022-11-28T06:51:42;6.70;99.90
17154;DHT22;8692;52.164;7.558;2022-11-28T06:54:11;6.70;99.90
17154;DHT22;8692;52.164;7.558;2022-11-28T06:56:40;6.70;99.90
17154;DHT22;8692;52.164;7.558;2022-11-28T06:59:10;6.70;99.90
17154;DHT22;8692;52.164;7.558;2022-11-28T07:01:38;6.70;99.90
17154;DHT22;8692;52.164;7.558;2022-11-28T07:04:10;6.70;99.90
17154;DHT22;8692;52.164;7.558;2022-11-28T07:06:38;6.70;99.90
17154;DHT22;8692;52.164;7.558;2022-11-28T07:09:07;6.70;99.90
17154;DHT22;8692;52.164;7.558;2022-11-28T07:11:40;6.70;99.90
17154;DHT22;8692;52.164;7.558;2022-11-28T07:14:11;6.70;99.90
17154;DHT22;8692;52.164;7.558;2022-11-28T07:16:41;6.70;99.90
17154;DHT22;8692;52.164;7.558;2022-11-28T07:19:14;6.70;99.90
17154;DHT22;8692;52.164;7.558;2022-11-28T07:21:42;6.70;99.90
17154;DHT22;8692;52.164;7.558;2022-11-28T07:24:11;6.70;99.90
17154;DHT22;8692;52.164;7.558;2022-11-28T07:26:39;6.70;99.90
17154;DHT22;8692;52.164;7.558;2022-11-28T07:29:08;6.70;99.90
17154;DHT22;8692;52.164;7.558;2022-11-28T07:31:41;6.70;99.90
17154;DHT22;8692;52.164;7.558;2022-11-28T07:34:10;6.70;99.90
17154;DHT22;8692;52.164;7.558;2022-11-28T07:36:39;6.70;99.90
17154;DHT22;8692;52.164;7.558;2022-11-28T07:39:09;6.70;99.90
17154;DHT22;8692;52.164;7.558;2022-11-28T07:41:38;6.70;99.90
17154;DHT22;8692;52.164;7.558;2022-11-28T07:44:06;6.70;99.90
17154;DHT22;8692;52.164;7.558;2022-11-28T07:46:37;6.70;99.90
17154;DHT22;8692;52.164;7.558;2022-11-28T07:49:06;6.70;99.90
17154;DHT22;8692;52.164;7.558;2022-11-28T07:51:34;6.70;99.90
17154;DHT22;8692;52.164;7.558;2022-11-28T07:54:04;6.70;99.90
17154;DHT22;8692;52.164;7.558;2022-11-28T07:56:35;6.70;99.90
17154;DHT22;8692;52.164;7.558;2022-11-28T07:59:23;6.70;99.90
17154;DHT22;8692;52.164;7.558;2022-11-28T08:01:51;6.70;99.90
17154;DHT22;8692;52.164;7.558;2022-11-28T08:04:20;6.70;99.90
17154;DHT22;8692;52.164;7.558;2022-11-28T08:06:49;6.70;99.90
17154;DHT22;8692;52.164;7.558;2022-11-28T08:09:18;6.70;99.90
17154;DHT22;8692;52.164;7.558;2022-11-28T08:11:46;6.70;99.90
17154;DHT22;8692;52.164;7.558;2022-11-28T08:14:20;6.70;99.90
17154;DHT22;8692;52.164;7.558;2022-11-28T08:16:48;6.70;99.90
17154;DHT22;8692;52.164;7.558;2022-11-28T08:19:17;6.70;99.90
17154;DHT22;8692;52.164;7.558;2022-11-28T08:21:53;6.70;99.90
17154;DHT22;8692;52.164;7.558;2022-11-28T08:24:22;6.70;99.90
17154;DHT22;8692;52.164;7.558;2022-11-28T08:26:50;6.70;99.90
17154;DHT22;8692;52.164;7.558;2022-11-28T08:29:19;6.70;99.90
17154;DHT22;8692;52.164;7.558;2022-11-28T08:31:47;6.70;99.90
17154;DHT22;8692;52.164;7.558;2022-11-28T08:34:15;6.70;99.90
17154;DHT22;8692;52.164;7.558;2022-11-28T08:36:43;6.70;99.90
17154;DHT22;8692;52.164;7.558;2022-11-28T08:39:13;6.70;99.90
17154;DHT22;8692;52.164;7.558;2022-11-28T08:41:55;6.80;99.90
17154;DHT22;8692;52.164;7.558;2022-11-28T08:44:25;6.80;99.90
17154;DHT22;8692;52.164;7.558;2022-11-28T08:46:56;6.70;99.90
17154;DHT22;8692;52.164;7.558;2022-11-28T08:49:24;6.80;99.90
17154;DHT22;8692;52.164;7.558;2022-11-28T08:51:52;6.80;99.90
17154;DHT22;8692;52.164;7.558;2022-11-28T08:54:23;6.80;99.90
17154;DHT22;8692;52.164;7.558;2022-11-28T08:56:51;6.80;99.90
17154;DHT22;8692;52.164;7.558;2022-11-28T08:59:21;6.80;99.90
17154;DHT22;8692;52.164;7.558;2022-11-28T09:01:51;6.80;99.90
17154;DHT22;8692;52.164;7.558;2022-11-28T09:04:19;6.90;99.90
17154;DHT22;8692;52.164;7.558;2022-11-28T09:06:47;6.90;99.90
17154;DHT22;8692;52.164;7.558;2022-11-28T09:09:16;6.90;99.90
17154;DHT22;8692;52.164;7.558;2022-11-28T09:11:44;6.90;99.90
17154;DHT22;8692;52.164;7.558;2022-11-28T09:14:13;6.90;99.90
17154;DHT22;8692;52.164;7.558;2022-11-28T09:16:42;6.90;99.90
17154;DHT22;8692;52.164;7.558;2022-11-28T09:19:10;7.00;99.90
17154;DHT22;8692;52.164;7.558;2022-11-28T09:21:39;6.90;99.90
17154;DHT22;8692;52.164;7.558;2022-11-28T09:24:08;7.00;99.90
17154;DHT22;8692;52.164;7.558;2022-11-28T09:26:42;7.00;99.90
17154;DHT22;8692;52.164;7.558;2022-11-28T09:29:13;7.00;99.90
17154;DHT22;8692;52.164;7.558;2022-11-28T09:31:42;7.00;99.90
17154;DHT22;8692;52.164;7.558;2022-11-28T09:34:13;7.00;99.90
17154;DHT22;8692;52.164;7.558;2022-11-28T09:36:44;7.00;99.90
17154;DHT22;8692;52.164;7.558;2022-11-28T09:39:12;7.00;99.90
17154;DHT22;8692;52.164;7.558;2022-11-28T09:41:48;7.00;99.90
17154;DHT22;8692;52.164;7.558;2022-11-28T09:44:20;7.00;99.90
17154;DHT22;8692;52.164;7.558;2022-11-28T09:46:52;7.00;99.90
17154;DHT22;8692;52.164;7.558;2022-11-28T09:49:27;7.10;99.90
17154;DHT22;8692;52.164;7.558;2022-11-28T09:52:15;7.10;99.90
17154;DHT22;8692;52.164;7.558;2022-11-28T09:54:50;7.00;99.90
17154;DHT22;8692;52.164;7.558;2022-11-28T09:57:31;7.10;99.90
17154;DHT22;8692;52.164;7.558;2022-11-28T10:00:04;7.10;99.90
17154;DHT22;8692;52.164;7.558;2022-11-28T10:02:46;7.10;99.90
17154;DHT22;8692;52.164;7.558;2022-11-28T10:05:23;7.10;99.90
17154;DHT22;8692;52.164;7.558;2022-11-28T10:08:04;7.10;99.90
17154;DHT22;8692;52.164;7.558;2022-11-28T10:10:43;7.10;99.90
17154;DHT22;8692;52.164;7.558;2022-11-28T10:13:19;7.10;99.90
17154;DHT22;8692;52.164;7.558;2022-11-28T10:16:06;7.10;99.90
17154;DHT22;8692;52.164;7.558;2022-11-28T10:18:42;7.10;99.90
17154;DHT22;8692;52.164;7.558;2022-11-28T10:21:21;7.20;99.90
17154;DHT22;8692;52.164;7.558;2022-11-28T10:23:53;7.20;99.90
17154;DHT22;8692;52.164;7.558;2022-11-28T10:26:30;7.20;99.90
17154;DHT22;8692;52.164;7.558;2022-11-28T10:29:06;7.20;99.90
17154;DHT22;8692;52.164;7.558;2022-11-28T10:31:40;7.20;99.90
17154;DHT22;8692;52.164;7.558;2022-11-28T10:34:15;7.20;99.90
17154;DHT22;8692;52.164;7.558;2022-11-28T10:36:50;7.20;99.90
17154;DHT22;8692;52.164;7.558;2022-11-28T10:39:26;7.20;99.90
17154;DHT22;8692;52.164;7.558;2022-11-28T10:42:03;7.20;99.90
17154;DHT22;8692;52.164;7.558;2022-11-28T10:44:54;7.20;99.90
17154;DHT22;8692;52.164;7.558;2022-11-28T10:47:41;7.30;99.90
17154;DHT22;8692;52.164;7.558;2022-11-28T10:50:19;7.20;99.90
17154;DHT22;8692;52.164;7.558;2022-11-28T10:52:53;7.20;99.90
17154;DHT22;8692;52.164;7.558;2022-11-28T10:55:32;7.30;99.90
17154;DHT22;8692;52.164;7.558;2022-11-28T10:58:08;7.30;99.90
17154;DHT22;8692;52.164;7.558;2022-11-28T11:00:38;7.30;99.90
17154;DHT22;8692;52.164;7.558;2022-11-28T11:03:11;7.30;99.90
17154;DHT22;8692;52.164;7.558;2022-11-28T11:05:44;7.30;99.90
17154;DHT22;8692;52.164;7.558;2022-11-28T11:08:18;7.30;99.90
17154;DHT22;8692;52.164;7.558;2022-11-28T11:10:48;7.30;99.90
17154;DHT22;8692;52.164;7.558;2022-11-28T11:13:19;7.30;99.90
17154;DHT22;8692;52.164;7.558;2022-11-28T11:15:52;7.40;99.90
17154;DHT22;8692;52.164;7.558;2022-11-28T11:18:28;7.40;99.90
17154;DHT22;8692;52.164;7.558;2022-11-28T11:21:12;7.40;99.90
17154;DHT22;8692;52.164;7.558;2022-11-28T11:23:44;7.40;99.90
17154;DHT22;8692;52.164;7.558;2022-11-28T11:26:21;7.40;99.90
17154;DHT22;8692;52.164;7.558;2022-11-28T11:28:50;7.40;99.90
17154;DHT22;8692;52.164;7.558;2022-11-28T11:31:23;7.50;99.90
17154;DHT22;8692;52.164;7.558;2022-11-28T11:34:00;7.40;99.90
17154;DHT22;8692;52.164;7.558;2022-11-28T11:36:31;7.50;99.90
17154;DHT22;8692;52.164;7.558;2022-11-28T11:39:06;7.50;99.90
17154;DHT22;8692;52.164;7.558;2022-11-28T11:41:34;7.50;99.90
17154;DHT22;8692;52.164;7.558;2022-11-28T11:44:30;7.50;99.90
17154;DHT22;8692;52.164;7.558;2022-11-28T11:47:03;7.50;99.90
17154;DHT22;8692;52.164;7.558;2022-11-28T11:49:35;7.50;99.90
17154;DHT22;8692;52.164;7.558;2022-11-28T11:52:20;7.60;99.90
17154;DHT22;8692;52.164;7.558;2022-11-28T11:54:57;7.60;99.90
17154;DHT22;8692;52.164;7.558;2022-11-28T11:57:31;7.60;99.90
17154;DHT22;8692;52.164;7.558;2022-11-28T12:00:03;7.60;99.90
17154;DHT22;8692;52.164;7.558;2022-11-28T12:02:40;7.60;99.90
17154;DHT22;8692;52.164;7.558;2022-11-28T12:05:15;7.60;99.90
17154;DHT22;8692;52.164;7.558;2022-11-28T12:07:54;7.60;99.90
17154;DHT22;8692;52.164;7.558;2022-11-28T12:10:26;7.70;99.90
17154;DHT22;8692;52.164;7.558;2022-11-28T12:12:55;7.70;99.90
17154;DHT22;8692;52.164;7.558;2022-11-28T12:15:32;7.70;99.90
17154;DHT22;8692;52.164;7.558;2022-11-28T12:18:17;7.70;99.90
17154;DHT22;8692;52.164;7.558;2022-11-28T12:21:11;7.70;99.90
17154;DHT22;8692;52.164;7.558;2022-11-28T12:23:51;7.70;99.90
17154;DHT22;8692;52.164;7.558;2022-11-28T12:26:25;7.70;99.90
17154;DHT22;8692;52.164;7.558;2022-11-28T12:29:08;7.70;99.90
17154;DHT22;8692;52.164;7.558;2022-11-28T12:31:50;7.70;99.90
17154;DHT22;8692;52.164;7.558;2022-11-28T12:34:27;7.70;99.90
17154;DHT22;8692;52.164;7.558;2022-11-28T12:37:08;7.70;99.90
17154;DHT22;8692;52.164;7.558;2022-11-28T12:39:49;7.70;99.90
17154;DHT22;8692;52.164;7.558;2022-11-28T12:42:32;7.80;99.90
17154;DHT22;8692;52.164;7.558;2022-11-28T12:45:17;7.80;99.90
17154;DHT22;8692;52.164;7.558;2022-11-28T12:47:52;7.80;99.90
17154;DHT22;8692;52.164;7.558;2022-11-28T12:50:31;7.80;99.90
17154;DHT22;8692;52.164;7.558;2022-11-28T12:53:23;7.80;99.90
17154;DHT22;8692;52.164;7.558;2022-11-28T12:56:05;7.80;99.90
17154;DHT22;8692;52.164;7.558;2022-11-28T12:58:41;7.80;99.90
17154;DHT22;8692;52.164;7.558;2022-11-28T13:01:26;7.80;99.90
17154;DHT22;8692;52.164;7.558;2022-11-28T13:04:04;7.80;99.90
17154;DHT22;8692;52.164;7.558;2022-11-28T13:06:43;7.80;99.90
17154;DHT22;8692;52.164;7.558;2022-11-28T13:09:26;7.80;99.90
17154;DHT22;8692;52.164;7.558;2022-11-28T13:12:17;7.80;99.90
17154;DHT22;8692;52.164;7.558;2022-11-28T13:14:51;7.80;99.90
17154;DHT22;8692;52.164;7.558;2022-11-28T13:17:32;7.80;99.90
17154;DHT22;8692;52.164;7.558;2022-11-28T13:20:14;7.80;99.90
17154;DHT22;8692;52.164;7.558;2022-11-28T13:22:53;7.80;99.90
17154;DHT22;8692;52.164;7.558;2022-11-28T13:25:28;7.80;99.90
17154;DHT22;8692;52.164;7.558;2022-11-28T13:28:04;7.80;99.90
17154;DHT22;8692;52.164;7.558;2022-11-28T13:30:37;7.80;99.90
17154;DHT22;8692;52.164;7.558;2022-11-28T13:33:27;7.80;99.90
17154;DHT22;8692;52.164;7.558;2022-11-28T13:35:57;7.80;99.90
17154;DHT22;8692;52.164;7.558;2022-11-28T13:38:31;7.80;99.90
17154;DHT22;8692;52.164;7.558;2022-11-28T13:41:25;7.80;99.90
17154;DHT22;8692;52.164;7.558;2022-11-28T13:44:22;7.80;99.90
17154;DHT22;8692;52.164;7.558;2022-11-28T13:46:51;7.80;99.90
17154;DHT22;8692;52.164;7.558;2022-11-28T13:49:24;7.80;99.90
17154;DHT22;8692;52.164;7.558;2022-11-28T13:55:39;7.90;99.90
17154;DHT22;8692;52.164;7.558;2022-11-28T13:58:22;7.80;99.90
17154;DHT22;8692;52.164;7.558;2022-11-28T14:01:07;7.80;99.90
17154;DHT22;8692;52.164;7.558;2022-11-28T14:03:43;7.80;99.90
17154;DHT22;8692;52.164;7.558;2022-11-28T14:06:15;7.80;99.90
17154;DHT22;8692;52.164;7.558;2022-11-28T14:08:56;7.80;99.90
17154;DHT22;8692;52.164;7.558;2022-11-28T14:14:56;7.80;99.90
17154;DHT22;8692;52.164;7.558;2022-11-28T14:17:41;7.80;99.90
17154;DHT22;8692;52.164;7.558;2022-11-28T14:20:25;7.80;99.90
17154;DHT22;8692;52.164;7.558;2022-11-28T14:23:11;7.80;99.90
17154;DHT22;8692;52.164;7.558;2022-11-28T14:25:44;7.80;99.90
17154;DHT22;8692;52.164;7.558;2022-11-28T14:28:18;7.80;99.90
17154;DHT22;8692;52.164;7.558;2022-11-28T14:30:50;7.80;99.90
17154;DHT22;8692;52.164;7.558;2022-11-28T14:33:29;7.80;99.90
17154;DHT22;8692;52.164;7.558;2022-11-28T14:36:25;7.80;99.90
17154;DHT22;8692;52.164;7.558;2022-11-28T14:39:30;7.80;99.90
17154;DHT22;8692;52.164;7.558;2022-11-28T14:42:32;7.80;99.90
17154;DHT22;8692;52.164;7.558;2022-11-28T14:45:43;7.80;99.90
17154;DHT22;8692;52.164;7.558;2022-11-28T14:48:16;7.80;99.90
17154;DHT22;8692;52.164;7.558;2022-11-28T14:50:49;7.80;99.90
17154;DHT22;8692;52.164;7.558;2022-11-28T14:53:43;7.80;99.90
17154;DHT22;8692;52.164;7.558;2022-11-28T14:56:26;7.80;99.90
17154;DHT22;8692;52.164;7.558;2022-11-28T14:58:57;7.80;99.90
17154;DHT22;8692;52.164;7.558;2022-11-28T15:01:42;7.80;99.90
17154;DHT22;8692;52.164;7.558;2022-11-28T15:04:40;7.80;99.90
17154;DHT22;8692;52.164;7.558;2022-11-28T15:07:22;7.80;99.90
17154;DHT22;8692;52.164;7.558;2022-11-28T15:09:59;7.80;99.90
17154;DHT22;8692;52.164;7.558;2022-11-28T15:12:42;7.80;99.90
17154;DHT22;8692;52.164;7.558;2022-11-28T15:15:13;7.80;99.90
17154;DHT22;8692;52.164;7.558;2022-11-28T15:17:48;7.80;99.90
17154;DHT22;8692;52.164;7.558;2022-11-28T15:20:22;7.80;99.90
17154;DHT22;8692;52.164;7.558;2022-11-28T15:22:55;7.80;99.90
17154;DHT22;8692;52.164;7.558;2022-11-28T15:25:25;7.80;99.90
17154;DHT22;8692;52.164;7.558;2022-11-28T15:27:57;7.80;99.90
17154;DHT22;8692;52.164;7.558;2022-11-28T15:30:43;7.80;99.90
17154;DHT22;8692;52.164;7.558;2022-11-28T15:33:12;7.80;99.90
17154;DHT22;8692;52.164;7.558;2022-11-28T15:35:53;7.80;99.90
17154;DHT22;8692;52.164;7.558;2022-11-28T15:38:28;7.80;99.90
17154;DHT22;8692;52.164;7.558;2022-11-28T15:40:57;7.80;99.90
17154;DHT22;8692;52.164;7.558;2022-11-28T15:43:29;7.80;99.90
17154;DHT22;8692;52.164;7.558;2022-11-28T15:45:59;7.80;99.90
17154;DHT22;8692;52.164;7.558;2022-11-28T15:48:35;7.80;99.90
17154;DHT22;8692;52.164;7.558;2022-11-28T15:51:17;7.80;99.90
17154;DHT22;8692;52.164;7.558;2022-11-28T15:53:50;7.80;99.90
17154;DHT22;8692;52.164;7.558;2022-11-28T15:56:18;7.80;99.90
17154;DHT22;8692;52.164;7.558;2022-11-28T15:58:46;7.80;99.90
17154;DHT22;8692;52.164;7.558;2022-11-28T16:01:18;7.80;99.90
17154;DHT22;8692;52.164;7.558;2022-11-28T16:03:51;7.80;99.90
17154;DHT22;8692;52.164;7.558;2022-11-28T16:06:24;7.80;99.90
17154;DHT22;8692;52.164;7.558;2022-11-28T16:08:56;7.70;99.90
17154;DHT22;8692;52.164;7.558;2022-11-28T16:11:26;7.80;99.90
17154;DHT22;8692;52.164;7.558;2022-11-28T16:13:58;7.80;99.90
17154;DHT22;8692;52.164;7.558;2022-11-28T16:16:29;7.70;99.90
17154;DHT22;8692;52.164;7.558;2022-11-28T16:19:00;7.70;99.90
17154;DHT22;8692;52.164;7.558;2022-11-28T16:21:33;7.80;99.90
17154;DHT22;8692;52.164;7.558;2022-11-28T16:24:15;7.80;99.90
17154;DHT22;8692;52.164;7.558;2022-11-28T16:26:53;7.80;99.90
17154;DHT22;8692;52.164;7.558;2022-11-28T16:29:22;7.70;99.90
17154;DHT22;8692;52.164;7.558;2022-11-28T16:31:50;7.70;99.90
17154;DHT22;8692;52.164;7.558;2022-11-28T16:34:43;7.70;99.90
17154;DHT22;8692;52.164;7.558;2022-11-28T16:37:11;7.70;99.90
17154;DHT22;8692;52.164;7.558;2022-11-28T16:39:43;7.70;99.90
17154;DHT22;8692;52.164;7.558;2022-11-28T16:42:14;7.70;99.90
17154;DHT22;8692;52.164;7.558;2022-11-28T16:44:43;7.70;99.90
17154;DHT22;8692;52.164;7.558;2022-11-28T16:47:26;7.70;99.90
17154;DHT22;8692;52.164;7.558;2022-11-28T16:52:53;7.70;99.90
17154;DHT22;8692;52.164;7.558;2022-11-28T16:55:43;7.70;99.90
17154;DHT22;8692;52.164;7.558;2022-11-28T16:58:20;7.70;99.90
17154;DHT22;8692;52.164;7.558;2022-11-28T17:00:58;7.70;99.90